createdAt,value
2023-03-06T00:01:23.870Z,4.77
2023-03-06T00:04:32.445Z,4.60
2023-03-06T00:07:47.898Z,4.80
2023-03-06T00:11:04.872Z,4.82
2023-03-06T00:14:13.498Z,4.68
2023-03-06T00:17:21.961Z,4.76
2023-03-06T00:20:39.801Z,4.71
2023-03-06T00:23:47.873Z,4.70
2023-03-06T00:27:02.977Z,4.76
2023-03-06T00:30:05.550Z,4.78
2023-03-06T00:33:19.930Z,4.92
2023-03-06T00:36:34.945Z,4.87
2023-03-06T00:39:37.145Z,5.01
2023-03-06T00:42:52.906Z,5.03
2023-03-06T00:45:54.844Z,5.08
2023-03-06T00:49:10.927Z,5.03
2023-03-06T00:52:19.863Z,4.96
2023-03-06T00:55:28.941Z,5.01
2023-03-06T00:58:37.503Z,4.83
2023-03-06T01:01:51.961Z,4.77
2023-03-06T01:04:53.896Z,4.79
2023-03-06T01:08:09.944Z,4.78
2023-03-06T01:11:17.940Z,4.84
2023-03-06T01:14:33.897Z,4.85
2023-03-06T01:17:41.955Z,4.88
2023-03-06T01:20:57.233Z,4.86
2023-03-06T01:24:05.985Z,4.77
2023-03-06T01:27:20.929Z,4.88
2023-03-06T01:30:29.498Z,4.90
2023-03-06T01:33:38.005Z,5.02
2023-03-06T01:36:53.121Z,4.97
2023-03-06T01:40:07.968Z,4.92
2023-03-06T01:43:39.918Z,4.87
2023-03-06T01:46:43.646Z,4.64
2023-03-06T01:50:00.008Z,4.75
2023-03-06T01:53:01.956Z,4.64
2023-03-06T01:56:20.003Z,4.67
2023-03-06T01:59:23.681Z,4.75
2023-03-06T02:02:39.060Z,4.81
2023-03-06T02:05:42.608Z,4.78
2023-03-06T02:08:59.049Z,4.71
2023-03-06T02:12:09.940Z,4.77
2023-03-06T02:15:28.954Z,4.85
2023-03-06T02:18:52.946Z,4.73
2023-03-06T02:22:09.955Z,4.78
2023-03-06T02:25:38.569Z,4.68
2023-03-06T02:28:46.961Z,4.69
2023-03-06T02:31:56.138Z,4.72
2023-03-06T02:35:11.946Z,4.84
2023-03-06T02:38:17.642Z,4.83
2023-03-06T02:41:33.015Z,4.81
2023-03-06T02:44:47.933Z,4.96
2023-03-06T02:47:49.831Z,4.92
2023-03-06T02:51:04.976Z,4.86
2023-03-06T02:54:13.593Z,4.95
2023-03-06T02:57:21.956Z,4.98
2023-03-06T03:00:39.023Z,4.95
2023-03-06T03:03:41.865Z,5.02
2023-03-06T03:06:57.064Z,5.13
2023-03-06T03:09:58.907Z,5.17
2023-03-06T03:13:14.003Z,5.14
2023-03-06T03:16:23.063Z,5.17
2023-03-06T03:19:37.950Z,5.16
2023-03-06T03:22:57.967Z,5.12
2023-03-06T03:26:14.939Z,5.15
2023-03-06T03:29:17.589Z,5.15
2023-03-06T03:32:33.077Z,5.20
2023-03-06T03:35:42.112Z,5.19
2023-03-06T03:38:50.602Z,5.16
2023-03-06T03:41:58.961Z,5.10
2023-03-06T03:45:14.957Z,5.13
2023-03-06T03:48:16.722Z,5.12
2023-03-06T03:51:31.028Z,5.09
2023-03-06T03:54:33.648Z,5.10
2023-03-06T03:57:47.998Z,4.95
2023-03-06T04:00:50.023Z,5.05
2023-03-06T04:04:05.017Z,5.15
2023-03-06T04:07:06.854Z,5.08
2023-03-06T04:10:21.978Z,5.18
2023-03-06T04:13:24.590Z,5.03
2023-03-06T04:16:39.005Z,4.97
2023-03-06T04:19:53.994Z,4.81
2023-03-06T04:23:09.010Z,4.95
2023-03-06T04:26:10.820Z,5.00
2023-03-06T04:29:25.985Z,5.06
2023-03-06T04:32:34.635Z,5.07
2023-03-06T04:35:49.061Z,4.89
2023-03-06T04:38:50.992Z,4.89
2023-03-06T04:42:07.001Z,5.03
2023-03-06T04:45:23.098Z,5.04
2023-03-06T04:48:25.151Z,5.01
2023-03-06T04:51:40.035Z,5.00
2023-03-06T04:54:48.617Z,4.82
2023-03-06T04:58:05.011Z,4.97
2023-03-06T05:01:07.061Z,5.03
2023-03-06T05:04:22.029Z,5.11
2023-03-06T05:07:30.138Z,5.13
2023-03-06T05:10:45.058Z,5.09
2023-03-06T05:13:53.696Z,4.95
2023-03-06T05:17:02.007Z,4.90
2023-03-06T05:20:26.172Z,5.13
2023-03-06T05:23:29.184Z,5.15
2023-03-06T05:26:44.083Z,5.06
2023-03-06T05:29:53.026Z,5.07
2023-03-06T05:33:08.069Z,5.11
2023-03-06T05:36:17.066Z,5.23
2023-03-06T05:39:25.793Z,5.15
2023-03-06T05:42:40.042Z,5.18
2023-03-06T05:45:55.042Z,5.16
2023-03-06T05:49:10.150Z,5.21
2023-03-06T05:52:13.235Z,5.13
2023-03-06T05:55:28.014Z,5.19
2023-03-06T05:58:44.073Z,5.31
2023-03-06T06:01:46.516Z,5.33
2023-03-06T06:05:01.057Z,5.30
2023-03-06T06:08:02.958Z,5.39
2023-03-06T06:11:19.049Z,5.42
2023-03-06T06:14:28.077Z,5.31
2023-03-06T06:17:50.098Z,5.73
2023-03-06T06:21:05.142Z,5.71
2023-03-06T06:24:22.085Z,5.67
2023-03-06T06:27:30.634Z,5.68
2023-03-06T06:30:45.174Z,5.78
2023-03-06T06:33:53.721Z,5.78
2023-03-06T06:37:02.087Z,5.66
2023-03-06T06:40:18.037Z,5.61
2023-03-06T06:43:26.074Z,5.72
2023-03-06T06:50:11.091Z,5.75
2023-03-06T06:53:19.670Z,5.81
2023-03-06T06:56:34.103Z,5.86
2023-03-06T06:59:43.130Z,6.07
2023-03-06T07:02:52.081Z,5.94
2023-03-06T07:06:00.955Z,5.95
2023-03-06T07:09:17.094Z,5.82
2023-03-06T07:12:32.808Z,5.76
2023-03-06T07:15:41.167Z,5.66
2023-03-06T07:18:50.393Z,5.69
2023-03-06T07:22:05.180Z,5.66
2023-03-06T07:25:14.086Z,6.87
2023-03-06T07:28:22.999Z,7.40
2023-03-06T07:31:34.147Z,8.23
2023-03-06T07:34:50.425Z,9.16
2023-03-06T07:41:22.480Z,9.86
2023-03-06T07:44:30.901Z,8.58
2023-03-06T07:47:47.107Z,8.79
2023-03-06T07:51:07.187Z,9.01
2023-03-06T07:54:23.306Z,7.65
2023-03-06T07:57:32.127Z,6.76
2023-03-06T08:00:47.114Z,6.17
2023-03-06T08:03:55.959Z,5.52
2023-03-06T08:07:12.097Z,5.58
2023-03-06T08:10:27.667Z,5.17
2023-03-06T08:13:36.640Z,5.31
2023-03-06T08:16:51.114Z,5.63
2023-03-06T08:20:05.378Z,5.59
2023-03-06T08:23:14.062Z,6.07
2023-03-06T08:26:33.178Z,5.81
2023-03-06T08:29:35.146Z,5.70
2023-03-06T08:32:53.105Z,5.81
2023-03-06T08:36:08.138Z,5.87
2023-03-06T08:39:17.097Z,7.63
2023-03-06T08:42:32.121Z,9.26
2023-03-06T08:45:33.895Z,8.67
2023-03-06T08:48:49.134Z,9.51
2023-03-06T08:51:57.934Z,8.63
2023-03-06T08:55:07.246Z,9.16
2023-03-06T08:58:22.198Z,9.03
2023-03-06T09:01:33.433Z,8.45
2023-03-06T09:04:48.163Z,9.27
2023-03-06T09:08:03.171Z,9.51
2023-03-06T09:11:21.115Z,8.58
2023-03-06T09:14:31.209Z,7.97
2023-03-06T09:17:40.145Z,8.81
2023-03-06T09:20:55.120Z,8.76
2023-03-06T09:23:57.419Z,8.40
2023-03-06T09:27:44.159Z,7.77
2023-03-06T09:31:00.260Z,7.66
2023-03-06T09:34:08.949Z,7.57
2023-03-06T09:37:17.437Z,7.82
2023-03-06T09:40:39.134Z,7.91
2023-03-06T09:43:58.180Z,7.72
2023-03-06T09:47:21.826Z,8.01
2023-03-06T09:50:51.092Z,7.75
2023-03-06T09:54:11.151Z,8.44
2023-03-06T09:57:26.030Z,8.08
2023-03-06T10:00:45.191Z,8.40
2023-03-06T10:04:18.217Z,9.22
2023-03-06T10:07:23.708Z,8.80
2023-03-06T10:10:51.175Z,8.21
2023-03-06T10:14:07.507Z,7.83
2023-03-06T10:17:25.142Z,7.41
2023-03-06T10:20:39.352Z,7.19
2023-03-06T10:24:01.168Z,7.60
2023-03-06T10:27:22.223Z,7.57
2023-03-06T10:30:50.653Z,7.66
2023-03-06T10:34:08.166Z,7.16
2023-03-06T10:37:27.257Z,7.15
2023-03-06T10:40:50.214Z,7.65
2023-03-06T10:44:19.846Z,7.49
2023-03-06T10:47:36.161Z,7.22
2023-03-06T10:50:44.908Z,8.17
2023-03-06T10:54:01.214Z,7.66
2023-03-06T10:57:32.217Z,7.80
2023-03-06T11:01:07.440Z,8.24
2023-03-06T11:04:44.317Z,7.91
2023-03-06T11:07:56.472Z,8.26
2023-03-06T11:11:11.133Z,7.96
2023-03-06T11:14:33.251Z,7.75
2023-03-06T11:17:38.087Z,7.73
2023-03-06T11:20:57.225Z,7.81
2023-03-06T11:24:25.228Z,7.73
2023-03-06T11:27:38.222Z,7.97
2023-03-06T11:30:54.850Z,7.81
2023-03-06T11:34:15.203Z,7.80
2023-03-06T11:37:50.179Z,7.60
2023-03-06T11:41:05.299Z,7.58
2023-03-06T11:44:28.166Z,7.93
2023-03-06T11:47:47.242Z,7.85
2023-03-06T11:51:06.535Z,7.74
2023-03-06T11:54:19.215Z,7.72
2023-03-06T11:57:45.240Z,7.65
2023-03-06T12:01:07.241Z,7.70
2023-03-06T12:04:35.757Z,7.73
2023-03-06T12:08:04.204Z,7.85
2023-03-06T12:11:33.161Z,8.30
2023-03-06T12:15:18.183Z,9.16
2023-03-06T12:18:56.231Z,8.89
2023-03-06T12:22:23.356Z,8.99
2023-03-06T12:25:43.164Z,9.13
2023-03-06T12:29:28.283Z,9.14
2023-03-06T12:32:59.263Z,8.83
2023-03-06T12:36:28.469Z,8.88
2023-03-06T12:40:10.261Z,9.17
2023-03-06T12:43:51.409Z,9.39
2023-03-06T12:47:14.209Z,9.52
2023-03-06T12:50:32.561Z,10.21
2023-03-06T12:53:48.233Z,10.41
2023-03-06T12:56:52.004Z,9.45
2023-03-06T13:00:07.383Z,9.56
2023-03-06T13:03:48.257Z,9.12
2023-03-06T13:10:50.250Z,8.61
2023-03-06T13:13:58.720Z,8.96
2023-03-06T13:17:41.341Z,9.54
2023-03-06T13:20:44.783Z,9.02
2023-03-06T13:24:11.286Z,9.23
2023-03-06T13:27:49.816Z,8.67
2023-03-06T13:30:58.265Z,8.83
2023-03-06T13:34:33.653Z,9.15
2023-03-06T13:37:44.509Z,8.66
2023-03-06T13:41:31.240Z,8.93
2023-03-06T13:44:40.993Z,9.13
2023-03-06T13:51:32.443Z,9.47
2023-03-06T13:54:58.312Z,9.41
2023-03-06T13:58:40.302Z,9.10
2023-03-06T14:02:24.348Z,8.98
2023-03-06T14:05:43.938Z,9.79
2023-03-06T14:08:53.283Z,9.97
2023-03-06T14:12:31.333Z,9.07
2023-03-06T14:15:49.407Z,8.66
2023-03-06T14:19:00.725Z,9.23
2023-03-06T14:22:10.226Z,8.62
2023-03-06T14:25:38.266Z,8.23
2023-03-06T14:28:46.325Z,8.00
2023-03-06T14:32:04.318Z,7.99
2023-03-06T14:35:25.125Z,7.75
2023-03-06T14:38:37.406Z,7.52
2023-03-06T14:41:45.885Z,7.50
2023-03-06T14:44:56.344Z,7.52
2023-03-06T14:48:13.389Z,7.59
2023-03-06T14:54:42.252Z,7.46
2023-03-06T14:58:04.284Z,7.53
2023-03-06T15:01:14.846Z,8.57
2023-03-06T15:04:38.325Z,8.49
2023-03-06T15:07:41.913Z,8.54
2023-03-06T15:11:07.296Z,8.27
2023-03-06T15:14:26.416Z,8.12
2023-03-06T15:17:40.530Z,9.39
2023-03-06T15:20:54.379Z,9.39
2023-03-06T15:24:32.706Z,9.38
2023-03-06T15:27:47.286Z,9.17
2023-03-06T15:31:01.383Z,8.99
2023-03-06T15:34:25.287Z,8.82
2023-03-06T15:37:34.316Z,9.36
2023-03-06T15:40:42.265Z,9.47
2023-03-06T15:43:50.988Z,8.80
2023-03-06T15:47:07.816Z,8.26
2023-03-06T15:50:22.027Z,8.41
2023-03-06T15:53:33.797Z,8.35
2023-03-06T15:56:51.313Z,8.31
2023-03-06T15:59:54.061Z,8.82
2023-03-06T16:03:11.347Z,9.18
2023-03-06T16:06:16.866Z,9.21
2023-03-06T16:09:31.371Z,8.61
2023-03-06T16:12:57.307Z,7.95
2023-03-06T16:16:13.370Z,8.19
2023-03-06T16:19:27.307Z,8.20
2023-03-06T16:23:07.403Z,8.91
2023-03-06T16:26:23.107Z,8.29
2023-03-06T16:29:33.459Z,9.32
2023-03-06T16:32:42.054Z,9.53
2023-03-06T16:35:50.388Z,9.14
2023-03-06T16:38:58.978Z,9.09
2023-03-06T16:42:07.390Z,8.72
2023-03-06T16:45:24.289Z,8.23
2023-03-06T16:48:33.377Z,7.99
2023-03-06T16:51:48.340Z,7.80
2023-03-06T16:54:57.371Z,7.58
2023-03-06T16:58:06.223Z,8.61
2023-03-06T17:01:16.343Z,8.25
2023-03-06T17:04:32.365Z,8.41
2023-03-06T17:07:35.328Z,7.96
2023-03-06T17:10:50.347Z,7.39
2023-03-06T17:13:52.583Z,6.99
2023-03-06T17:17:07.404Z,6.72
2023-03-06T17:20:11.005Z,6.71
2023-03-06T17:23:28.415Z,6.60
2023-03-06T17:26:43.465Z,6.54
2023-03-06T17:29:52.365Z,6.48
2023-03-06T17:33:01.374Z,6.43
2023-03-06T17:36:10.426Z,6.27
2023-03-06T17:39:25.716Z,6.32
2023-03-06T17:42:28.232Z,6.17
2023-03-06T17:45:43.318Z,6.21
2023-03-06T17:48:51.173Z,6.11
2023-03-06T17:52:09.371Z,6.17
2023-03-06T17:55:24.329Z,6.21
2023-03-06T17:58:27.088Z,6.20
2023-03-06T18:01:41.506Z,6.12
2023-03-06T18:04:50.374Z,6.09
2023-03-06T18:08:05.360Z,6.13
2023-03-06T18:11:21.388Z,6.24
2023-03-06T18:14:32.795Z,6.24
2023-03-06T18:17:47.347Z,6.25
2023-03-06T18:21:03.433Z,6.27
2023-03-06T18:24:05.615Z,6.18
2023-03-06T18:27:20.376Z,6.18
2023-03-06T18:30:22.436Z,6.21
2023-03-06T18:33:38.498Z,6.22
2023-03-06T18:36:48.367Z,6.12
2023-03-06T18:39:57.166Z,6.20
2023-03-06T18:43:06.418Z,6.24
2023-03-06T18:46:14.970Z,6.17
2023-03-06T18:49:23.526Z,6.11
2023-03-06T18:52:40.365Z,6.08
2023-03-06T18:55:51.307Z,6.13
2023-03-06T18:59:10.513Z,6.11
2023-03-06T19:02:13.088Z,6.17
2023-03-06T19:05:27.528Z,6.21
2023-03-06T19:08:45.379Z,6.18
2023-03-06T19:11:54.995Z,6.09
2023-03-06T19:15:10.513Z,6.02
2023-03-06T19:18:16.470Z,6.06
2023-03-06T19:21:34.562Z,5.99
2023-03-06T19:24:36.676Z,5.84
2023-03-06T19:27:51.379Z,5.85
2023-03-06T19:31:00.599Z,5.89
2023-03-06T19:34:09.410Z,5.94
2023-03-06T19:37:18.029Z,5.98
2023-03-06T19:40:26.501Z,5.96
2023-03-06T19:43:35.410Z,6.00
2023-03-06T19:46:43.671Z,5.94
2023-03-06T19:49:52.101Z,6.01
2023-03-06T19:53:00.380Z,6.00
2023-03-06T19:56:20.372Z,5.95
2023-03-06T19:59:22.417Z,5.92
2023-03-06T20:02:37.455Z,5.87
2023-03-06T20:05:46.302Z,5.82
2023-03-06T20:09:01.637Z,5.79
2023-03-06T20:12:23.466Z,5.76
2023-03-06T20:15:25.369Z,5.70
2023-03-06T20:18:40.381Z,5.68
2023-03-06T20:21:42.514Z,5.69
2023-03-06T20:24:57.434Z,5.74
2023-03-06T20:27:59.258Z,5.79
2023-03-06T20:31:20.516Z,5.73
2023-03-06T20:34:29.425Z,5.77
2023-03-06T20:37:38.266Z,5.69
2023-03-06T20:40:48.522Z,5.62
2023-03-06T20:44:06.422Z,5.59
2023-03-06T20:47:18.052Z,5.71
2023-03-06T20:50:27.417Z,5.66
2023-03-06T20:53:35.986Z,5.77
2023-03-06T20:56:44.388Z,5.86
2023-03-06T20:59:53.094Z,5.89
2023-03-06T21:03:01.499Z,5.90
2023-03-06T21:06:16.445Z,5.91
2023-03-06T21:09:18.475Z,5.97
2023-03-06T21:12:40.412Z,5.99
2023-03-06T21:15:43.303Z,6.03
2023-03-06T21:19:00.596Z,5.86
2023-03-06T21:22:09.441Z,5.84
2023-03-06T21:25:24.439Z,5.79
2023-03-06T21:28:26.306Z,5.78
2023-03-06T21:31:42.586Z,5.84
2023-03-06T21:34:51.227Z,5.84
2023-03-06T21:37:59.432Z,5.61
2023-03-06T21:41:12.607Z,5.77
2023-03-06T21:44:20.514Z,5.72
2023-03-06T21:47:29.033Z,5.75
2023-03-06T21:50:37.457Z,5.76
2023-03-06T21:53:47.912Z,5.74
2023-03-06T21:56:56.538Z,5.56
2023-03-06T22:00:05.937Z,5.73
2023-03-06T22:03:20.426Z,5.78
2023-03-06T22:06:31.459Z,5.78
2023-03-06T22:09:46.475Z,5.62
2023-03-06T22:12:55.773Z,5.76
2023-03-06T22:16:11.581Z,5.81
2023-03-06T22:19:13.645Z,5.86
2023-03-06T22:22:29.468Z,5.77
2023-03-06T22:25:37.478Z,5.80
2023-03-06T22:28:52.504Z,5.78
2023-03-06T22:31:54.396Z,5.78
2023-03-06T22:35:09.442Z,5.72
2023-03-06T22:38:17.499Z,5.74
2023-03-06T22:41:33.485Z,5.79
2023-03-06T22:44:48.446Z,5.70
2023-03-06T22:48:10.898Z,5.80
2023-03-06T22:51:17.756Z,5.81
2023-03-06T22:54:32.446Z,5.85
2023-03-06T22:57:34.252Z,5.83
2023-03-06T23:00:49.450Z,5.88
2023-03-06T23:03:53.887Z,5.76
2023-03-06T23:07:08.486Z,5.75
2023-03-06T23:10:17.494Z,5.84
2023-03-06T23:13:32.829Z,5.83
2023-03-06T23:16:42.492Z,5.78
2023-03-06T23:19:51.122Z,5.68
2023-03-06T23:22:59.493Z,5.61
2023-03-06T23:26:08.788Z,5.69
2023-03-06T23:29:17.516Z,5.43
2023-03-06T23:32:32.588Z,5.58
2023-03-06T23:35:35.913Z,5.51
2023-03-06T23:38:51.522Z,5.52
2023-03-06T23:41:53.462Z,5.54
2023-03-06T23:45:08.538Z,5.60
2023-03-06T23:48:10.654Z,5.66
2023-03-06T23:51:28.614Z,5.64
2023-03-06T23:54:37.463Z,5.63
2023-03-06T23:57:52.512Z,5.63
